Time;durP1;ratioP1;P1;durP2;ratioP2;P2;SDS_P1;SDS_P2;PMS_P1;PMS_P2;Temp;Humidity;BMP_temperature;BMP_pressure;BME280_temperature;BME280_humidity;BME280_pressure;Samples;Min_cycle;Max_cycle;Signal;HPM_P1;HPM_P2
2023/05/15 00:01:45;;;;;;;35.55;31.20;;;;;;;11.41;100.00;163548.75;5072532;28;20045;-57
2023/05/15 00:04:11;;;;;;;40.95;35.63;;;;;;;11.39;100.00;163542.00;5071818;28;20044;-57
2023/05/15 00:06:37;;;;;;;43.53;34.75;;;;;;;11.37;100.00;163537.91;5072709;28;20027;-57
2023/05/15 00:09:02;;;;;;;43.67;35.65;;;;;;;11.37;100.00;163536.56;5071655;28;20080;-57
2023/05/15 00:11:28;;;;;;;42.63;35.28;;;;;;;11.33;100.00;163527.13;5072436;28;20028;-56
2023/05/15 00:13:53;;;;;;;41.30;34.75;;;;;;;11.34;100.00;163529.84;5071606;28;20039;-57
2023/05/15 00:16:19;;;;;;;43.65;36.25;;;;;;;11.33;100.00;163527.13;5072648;28;20024;-57
2023/05/15 00:18:44;;;;;;;46.88;35.03;;;;;;;11.29;100.00;163516.28;5071397;28;20094;-57
2023/05/15 00:21:09;;;;;;;40.85;34.92;;;;;;;11.29;100.00;163516.28;5072717;28;20077;-57
2023/05/15 00:23:35;;;;;;;45.05;36.85;;;;;;;11.28;100.00;163513.63;5070975;28;20021;-57
2023/05/15 00:26:00;;;;;;;48.72;38.67;;;;;;;11.27;100.00;163510.94;5073161;28;20020;-57
2023/05/15 00:28:26;;;;;;;40.17;30.65;;;;;;;11.27;100.00;163510.94;5072297;28;20032;-57
2023/05/15 00:30:51;;;;;;;41.80;35.67;;;;;;;11.24;100.00;163502.81;5070667;28;20045;-57
2023/05/15 00:33:16;;;;;;;39.70;35.28;;;;;;;11.23;100.00;163500.09;5072781;28;20404;-57
2023/05/15 00:35:42;;;;;;;42.83;37.03;;;;;;;11.19;100.00;163490.63;5070433;28;20418;-57
2023/05/15 00:38:07;;;;;;;47.00;36.92;;;;;;;11.18;100.00;163486.59;5072912;28;20378;-57
2023/05/15 00:40:35;;;;;;;42.85;34.08;;;;;;;11.16;100.00;163481.19;5070634;28;20494;-57
2023/05/15 00:43:01;;;;;;;42.72;34.55;;;;;;;11.09;100.00;163465.00;5071763;28;20104;-57
2023/05/15 00:45:27;;;;;;;46.50;37.45;;;;;;;11.10;100.00;163467.72;5070252;28;20090;-57
2023/05/15 00:47:53;;;;;;;44.33;36.40;;;;;;;11.07;100.00;163459.59;5072210;28;20035;-57
2023/05/15 00:50:20;;;;;;;42.20;36.10;;;;;;;10.99;100.00;163437.97;5070333;28;20040;-58
2023/05/15 00:52:46;;;;;;;44.78;37.08;;;;;;;11.01;100.00;163443.38;5072227;28;20447;-57
2023/05/15 00:55:11;;;;;;;40.92;34.97;;;;;;;11.01;100.00;163443.38;5070529;28;20499;-58
2023/05/15 00:57:38;;;;;;;50.05;38.35;;;;;;;10.96;100.00;163429.91;5071910;28;20040;-58
2023/05/15 01:00:09;;;;;;;44.88;38.65;;;;;;;10.94;100.00;163424.50;5069780;28;20542;-58
2023/05/15 01:02:35;;;;;;;41.70;36.80;;;;;;;10.93;100.00;163421.78;5072019;28;20090;-58
2023/05/15 01:05:00;;;;;;;42.38;37.05;;;;;;;10.91;100.00;163416.38;5069020;28;20411;-58
2023/05/15 01:07:27;;;;;;;49.75;39.72;;;;;;;10.86;100.00;163402.88;5071748;28;20031;-58
2023/05/15 01:09:54;;;;;;;49.83;40.00;;;;;;;10.82;100.00;163393.44;5070221;28;20040;-58
2023/05/15 01:12:23;;;;;;;48.88;40.35;;;;;;;10.81;100.00;163390.72;5071713;28;20031;-58
2023/05/15 01:14:49;;;;;;;60.15;42.22;;;;;;;10.77;100.00;163381.28;5069752;28;20491;-58
2023/05/15 01:17:14;;;;;;;50.30;41.60;;;;;;;10.75;100.00;163374.53;5071591;28;20124;-58
2023/05/15 01:19:41;;;;;;;50.45;39.97;;;;;;;10.70;100.00;163362.38;5070039;28;20040;-58
2023/05/15 01:22:15;;;;;;;49.28;40.88;;;;;;;10.72;100.00;163367.78;5071397;28;20035;-58
2023/05/15 01:24:58;;;;;;;48.55;39.05;;;;;;;10.71;100.00;163365.09;5069692;28;20044;-57
2023/05/15 01:27:38;;;;;;;50.35;40.33;;;;;;;10.69;100.00;163359.66;5070958;28;20039;-58
2023/05/15 01:30:07;;;;;;;47.28;41.33;;;;;;;10.68;100.00;163357.03;5070366;28;20123;-57
2023/05/15 01:32:53;;;;;;;44.25;39.00;;;;;;;10.68;100.00;163357.03;5071250;28;20107;-58
2023/05/15 01:35:50;;;;;;;49.40;40.22;;;;;;;10.64;100.00;163346.19;5069478;28;20051;-57
2023/05/15 01:38:46;;;;;;;54.97;43.33;;;;;;;10.63;100.00;163343.50;5071445;28;20031;-58
2023/05/15 01:41:26;;;;;;;55.40;42.15;;;;;;;10.59;100.00;163332.72;5069556;28;20451;-58
2023/05/15 01:43:57;;;;;;;43.72;36.35;;;;;;;10.58;100.00;163330.00;5069486;28;20040;-57
2023/05/15 01:46:26;;;;;;;53.45;42.85;;;;;;;10.53;100.00;163317.84;5071007;28;20040;-58
2023/05/15 01:48:53;;;;;;;51.70;40.13;;;;;;;10.50;100.00;163308.41;5069804;28;20041;-58
2023/05/15 01:51:21;;;;;;;47.75;38.78;;;;;;;10.41;100.00;163286.81;5070587;28;20032;-58
2023/05/15 01:53:48;;;;;;;50.70;40.60;;;;;;;10.43;100.00;163290.84;5069481;28;20490;-57
2023/05/15 01:56:16;;;;;;;54.90;39.63;;;;;;;10.41;100.00;163286.81;5070759;28;20062;-57
2023/05/15 01:58:43;;;;;;;50.40;41.10;;;;;;;10.37;100.00;163276.03;5069477;28;20032;-57
2023/05/15 02:01:09;;;;;;;51.33;38.60;;;;;;;10.33;100.00;163265.16;5070499;28;20075;-57
2023/05/15 02:03:35;;;;;;;55.88;42.55;;;;;;;10.25;100.00;163244.94;5069468;28;20032;-57
2023/05/15 02:06:03;;;;;;;57.55;42.78;;;;;;;10.24;100.00;163240.91;5070526;28;20067;-56
2023/05/15 02:08:30;;;;;;;59.65;42.78;;;;;;;10.24;100.00;163240.91;5070749;28;20086;-57
2023/05/15 02:10:57;;;;;;;55.95;42.75;;;;;;;10.22;100.00;163235.47;5069486;28;20048;-58
2023/05/15 02:13:24;;;;;;;55.03;43.40;;;;;;;10.16;100.00;163221.94;5069963;28;20020;-58
2023/05/15 02:15:49;;;;;;;49.80;42.45;;;;;;;10.13;100.00;163213.88;5069146;28;20052;-58
2023/05/15 02:18:15;;;;;;;51.80;41.55;;;;;;;10.09;100.00;163201.75;5070780;28;20032;-57
2023/05/15 02:20:40;;;;;;;61.72;45.10;;;;;;;10.06;100.00;163195.00;5068452;28;20041;-58
2023/05/15 02:23:06;;;;;;;53.88;39.50;;;;;;;10.02;100.00;163184.19;5070742;28;20020;-58
2023/05/15 02:25:42;;;;;;;54.45;43.47;;;;;;;9.99;100.00;163176.09;5068919;28;20124;-56
2023/05/15 02:28:16;;;;;;;63.75;46.53;;;;;;;9.94;100.00;163162.63;5070763;28;20429;-57
2023/05/15 02:30:53;;;;;;;58.15;42.53;;;;;;;9.91;100.00;163154.50;5068946;28;20445;-57
2023/05/15 02:34:05;;;;;;;57.35;46.38;;;;;;;9.88;100.00;163146.41;5070544;28;20024;-58
2023/05/15 02:36:35;;;;;;;59.47;45.15;;;;;;;9.83;100.00;163135.63;5025976;28;20495;-58
2023/05/15 02:39:01;;;;;;;60.25;44.97;;;;;;;9.81;100.00;163130.22;5053554;28;20056;-58
2023/05/15 02:41:27;;;;;;;61.42;46.65;;;;;;;9.80;100.00;163127.50;5069493;28;20471;-58
2023/05/15 02:43:54;;;;;;;56.10;43.33;;;;;;;9.76;100.00;163116.75;5068977;28;20040;-57
2023/05/15 02:46:20;;;;;;;58.72;44.88;;;;;;;9.80;100.00;163126.19;5070135;28;20078;-58
2023/05/15 02:48:47;;;;;;;56.10;45.65;;;;;;;9.82;100.00;163132.94;5068566;28;20036;-57
2023/05/15 02:51:12;;;;;;;60.67;43.03;;;;;;;9.83;100.00;163134.25;5070465;28;20029;-57
2023/05/15 02:53:42;;;;;;;53.65;43.03;;;;;;;9.89;100.00;163149.09;5068826;28;20040;-57
2023/05/15 02:56:07;;;;;;;49.83;40.80;;;;;;;9.93;100.00;163159.94;5070366;28;20414;-58
2023/05/15 02:58:33;;;;;;;56.78;41.28;;;;;;;9.96;100.00;163169.38;5066784;28;20085;-58
2023/05/15 03:00:59;;;;;;;50.58;39.72;;;;;;;9.99;100.00;163176.09;5070078;28;20040;-57
2023/05/15 03:03:24;;;;;;;56.13;40.85;;;;;;;9.99;100.00;163176.09;5070156;28;20033;-58
2023/05/15 03:05:50;;;;;;;56.78;42.70;;;;;;;9.92;100.00;163158.53;5068799;28;20044;-58
2023/05/15 03:08:15;;;;;;;63.47;43.22;;;;;;;9.87;100.00;163143.69;5070372;28;20033;-58
2023/05/15 03:10:40;;;;;;;57.25;40.45;;;;;;;9.64;100.00;163084.38;5068666;28;20032;-58
2023/05/15 03:13:06;;;;;;;67.05;45.15;;;;;;;9.76;100.00;163115.38;5069804;28;20449;-58
2023/05/15 03:15:31;;;;;;;53.42;42.33;;;;;;;9.74;100.00;163111.34;5065618;28;20052;-58
2023/05/15 03:17:56;;;;;;;54.17;37.80;;;;;;;9.67;100.00;163092.44;5050592;28;20052;-57
2023/05/15 03:20:22;;;;;;;51.63;39.17;;;;;;;9.59;100.00;163070.84;5048271;28;20048;-57
2023/05/15 03:22:47;;;;;;;54.55;40.50;;;;;;;9.47;100.00;163041.22;5050037;28;20032;-56
2023/05/15 03:25:12;;;;;;;58.38;45.67;;;;;;;9.45;100.00;163035.81;5052074;28;20519;-56
2023/05/15 03:27:38;;;;;;;59.28;39.92;;;;;;;9.47;100.00;163039.81;5053659;28;20021;-56
2023/05/15 03:30:04;;;;;;;59.72;42.10;;;;;;;9.49;100.00;163046.56;5051893;28;20052;-56
2023/05/15 03:32:30;;;;;;;59.55;46.25;;;;;;;9.53;100.00;163057.38;5053581;28;20483;-58
2023/05/15 03:34:55;;;;;;;65.40;46.78;;;;;;;9.60;100.00;163074.94;5063765;28;20033;-58
2023/05/15 03:37:20;;;;;;;63.58;44.67;;;;;;;9.66;100.00;163089.75;5073715;28;20024;-57
2023/05/15 03:39:46;;;;;;;68.15;46.97;;;;;;;9.70;100.00;163100.56;5057284;28;20402;-57
2023/05/15 03:42:11;;;;;;;67.70;46.28;;;;;;;9.69;100.00;163097.84;5053661;28;20017;-57
2023/05/15 03:44:36;;;;;;;66.45;47.97;;;;;;;9.69;100.00;163097.84;5065808;28;20445;-57
2023/05/15 03:47:02;;;;;;;62.80;48.10;;;;;;;9.71;100.00;163103.25;5073335;28;20050;-57
2023/05/15 03:49:27;;;;;;;68.10;48.80;;;;;;;9.71;100.00;163101.91;5071338;28;20041;-56
2023/05/15 03:51:52;;;;;;;66.28;49.33;;;;;;;9.75;100.00;163112.72;5073408;28;20024;-57
2023/05/15 03:54:18;;;;;;;71.97;51.78;;;;;;;9.74;100.00;163110.00;5071945;28;20376;-57
2023/05/15 03:56:43;;;;;;;87.13;47.42;;;;;;;9.68;100.00;163096.47;5073139;28;20073;-57
2023/05/15 03:59:08;;;;;;;77.65;53.88;;;;;;;9.68;100.00;163095.16;5066261;28;20040;-57
2023/05/15 04:01:34;;;;;;;73.60;51.22;;;;;;;9.71;100.00;163103.25;5072786;28;20052;-57
2023/05/15 04:03:59;;;;;;;75.25;52.25;;;;;;;9.69;100.00;163099.19;5064734;28;20033;-57
2023/05/15 04:06:25;;;;;;;72.35;48.20;;;;;;;9.66;100.00;162976.69;5052948;28;20067;-58
2023/05/15 04:08:50;;;;;;;75.10;52.97;;;;;;;9.70;100.00;162276.03;5052103;28;20021;-57
2023/05/15 04:11:15;;;;;;;84.55;57.40;;;;;;;9.69;100.00;161166.34;5063900;28;20547;-58
2023/05/15 04:13:41;;;;;;;78.53;52.80;;;;;;;9.74;100.00;158812.31;5069598;28;20040;-56
2023/05/15 04:16:07;;;;;;;79.82;53.53;;;;;;;9.73;100.00;155351.81;5072163;28;20031;-56
2023/05/15 04:18:33;;;;;;;85.07;52.15;;;;;;;9.74;100.00;153239.38;5070444;28;20031;-56
2023/05/15 04:20:58;;;;;;;74.22;49.35;;;;;;;9.78;100.00;152194.22;5072859;28;20024;-56
2023/05/15 04:23:24;;;;;;;78.03;53.72;;;;;;;9.78;100.00;151137.91;5072122;28;20028;-56
2023/05/15 04:25:52;;;;;;;85.15;49.75;;;;;;;9.83;100.00;149389.09;5070851;28;20170;-56
2023/05/15 04:28:19;;;;;;;78.03;51.67;;;;;;;9.84;100.00;149039.63;5072712;28;20031;-56
2023/05/15 04:30:45;;;;;;;79.80;52.05;;;;;;;9.86;100.00;148691.44;5071206;28;20044;-56
2023/05/15 04:33:10;;;;;;;82.47;51.90;;;;;;;9.86;100.00;149043.34;5072271;28;20036;-56
2023/05/15 04:35:36;;;;;;;78.13;49.17;;;;;;;9.71;100.00;151471.22;5070295;28;20064;-57
2023/05/15 04:38:02;;;;;;;75.20;48.53;;;;;;;9.63;100.00;152508.59;5071309;28;20043;-57
2023/05/15 04:40:27;;;;;;;83.35;48.05;;;;;;;9.70;100.00;151822.03;5070308;28;20102;-56
2023/05/15 04:42:53;;;;;;;82.35;56.38;;;;;;;9.75;100.00;150777.19;5071946;28;20020;-57
2023/05/15 04:45:18;;;;;;;81.97;51.58;;;;;;;9.80;100.00;148327.31;5071057;28;20040;-57
2023/05/15 04:47:43;;;;;;;77.53;57.90;;;;;;;9.84;100.00;145523.28;5071807;28;20032;-57
2023/05/15 04:50:09;;;;;;;75.93;53.05;;;;;;;9.83;100.00;144114.72;5070813;28;20044;-57
2023/05/15 04:52:34;;;;;;;96.38;51.05;;;;;;;9.93;100.00;142028.53;5071994;28;20028;-57
2023/05/15 04:55:00;;;;;;;77.88;53.95;;;;;;;9.92;100.00;142026.19;5070632;28;20048;-57
2023/05/15 04:57:25;;;;;;;62.28;47.10;;;;;;;9.91;100.00;142726.63;5072338;28;20028;-56
2023/05/15 04:59:51;;;;;;;66.45;48.70;;;;;;;9.96;100.00;143791.63;5070621;28;20040;-56
2023/05/15 05:02:22;;;;;;;68.18;48.22;;;;;;;9.97;100.00;147662.69;5071906;28;20032;-57
2023/05/15 05:04:48;;;;;;;71.45;49.85;;;;;;;9.96;100.00;151180.28;5070555;28;20403;-56
2023/05/15 05:07:13;;;;;;;66.55;50.67;;;;;;;10.00;100.00;151542.47;5055802;28;20029;-57
2023/05/15 05:09:39;;;;;;;74.47;49.25;;;;;;;9.98;100.00;150833.13;5056697;28;20053;-57
2023/05/15 05:12:06;;;;;;;74.90;50.40;;;;;;;9.98;100.00;150482.25;5063129;28;20039;-58
2023/05/15 05:14:31;;;;;;;71.82;50.78;;;;;;;9.96;100.00;150476.03;5070242;28;20067;-57
2023/05/15 05:16:56;;;;;;;71.20;49.53;;;;;;;9.95;100.00;151531.22;5071627;28;20028;-56
2023/05/15 05:19:22;;;;;;;66.97;49.13;;;;;;;9.97;100.00;152591.66;5070568;28;20051;-57
2023/05/15 05:21:47;;;;;;;68.55;50.13;;;;;;;9.95;100.00;153997.22;5071305;28;20016;-56
2023/05/15 05:24:12;;;;;;;69.88;51.72;;;;;;;9.95;100.00;157318.72;5070120;28;20036;-55
2023/05/15 05:26:38;;;;;;;71.13;49.92;;;;;;;9.92;100.00;160032.50;5071442;28;20024;-56
2023/05/15 05:29:03;;;;;;;71.05;50.75;;;;;;;9.92;100.00;161748.97;5070272;28;20044;-56
2023/05/15 05:31:28;;;;;;;75.03;48.75;;;;;;;9.95;100.00;162539.03;5070973;28;20387;-55
2023/05/15 05:33:54;;;;;;;69.90;47.55;;;;;;;9.88;100.00;163146.41;5070029;28;20036;-56
2023/05/15 05:36:20;;;;;;;64.95;46.17;;;;;;;9.89;100.00;163149.09;5071553;28;20032;-56
2023/05/15 05:38:45;;;;;;;66.05;47.17;;;;;;;9.90;100.00;163151.81;5069889;28;20029;-57
2023/05/15 05:41:10;;;;;;;65.38;50.35;;;;;;;9.82;100.00;163132.94;5071347;28;20023;-56
2023/05/15 05:43:35;;;;;;;68.35;52.67;;;;;;;9.80;100.00;163127.50;5061364;28;20029;-56
2023/05/15 05:46:01;;;;;;;68.85;49.40;;;;;;;9.81;100.00;163130.22;5031339;28;20029;-56
2023/05/15 05:48:26;;;;;;;75.47;51.22;;;;;;;9.86;100.00;163142.38;5030999;28;20087;-56
2023/05/15 05:50:52;;;;;;;71.97;49.38;;;;;;;9.76;100.00;163115.38;5049963;28;20034;-56
2023/05/15 05:53:17;;;;;;;71.47;51.58;;;;;;;9.85;100.00;163139.66;5051215;28;20070;-56
2023/05/15 05:55:43;;;;;;;65.78;47.72;;;;;;;9.69;100.00;163097.84;5049201;28;20053;-56
2023/05/15 05:58:08;;;;;;;76.85;48.75;;;;;;;9.61;100.00;163076.28;5050428;28;20017;-56
2023/05/15 06:00:33;;;;;;;77.20;49.78;;;;;;;9.61;100.00;163076.28;5047754;28;20050;-56
2023/05/15 06:02:59;;;;;;;71.07;48.38;;;;;;;9.62;100.00;163078.97;5049338;28;20036;-56
2023/05/15 06:05:25;;;;;;;71.00;51.42;;;;;;;9.65;100.00;163087.03;5048501;28;20045;-56
2023/05/15 06:07:51;;;;;;;67.60;48.90;;;;;;;9.66;100.00;163089.75;5050340;28;20101;-56
2023/05/15 06:10:17;;;;;;;68.47;49.30;;;;;;;9.66;100.00;163089.75;5048365;28;20037;-56
2023/05/15 06:12:43;;;;;;;68.55;50.28;;;;;;;9.81;100.00;163130.22;5046248;28;20032;-56
2023/05/15 06:15:09;;;;;;;63.40;49.50;;;;;;;9.88;100.00;163146.41;5044053;28;20048;-56
2023/05/15 06:17:34;;;;;;;71.30;51.55;;;;;;;9.94;100.00;163162.63;5056743;28;20082;-56
2023/05/15 06:19:59;;;;;;;73.45;47.22;;;;;;;10.03;100.00;163186.88;5069436;28;20425;-56
2023/05/15 06:22:25;;;;;;;69.55;47.22;;;;;;;10.04;100.00;163188.25;5070750;28;20025;-57
2023/05/15 06:24:50;;;;;;;61.83;44.72;;;;;;;9.99;100.00;163177.44;5069035;28;20043;-57
2023/05/15 06:27:15;;;;;;;57.97;42.70;;;;;;;10.10;100.00;163205.78;5070732;28;20024;-56
2023/05/15 06:29:41;;;;;;;50.10;40.72;;;;;;;10.22;100.00;163235.47;5069049;28;20525;-56
2023/05/15 06:32:06;;;;;;;51.30;39.78;;;;;;;10.31;100.00;163261.13;5070372;28;20025;-56
2023/05/15 06:34:31;;;;;;;51.88;43.30;;;;;;;10.44;100.00;163294.91;5069210;28;20361;-56
2023/05/15 06:36:57;;;;;;;48.22;39.63;;;;;;;10.47;100.00;163301.66;5070621;28;20028;-56
2023/05/15 06:39:22;;;;;;;47.95;39.33;;;;;;;10.45;100.00;163297.63;5069020;28;20028;-54
2023/05/15 06:41:48;;;;;;;48.58;37.90;;;;;;;10.49;100.00;163307.06;5070307;28;20021;-56
2023/05/15 06:44:13;;;;;;;43.92;37.22;;;;;;;10.45;100.00;163296.25;5058568;28;20486;-56
2023/05/15 06:46:38;;;;;;;38.40;32.75;;;;;;;10.57;100.00;163328.66;5048621;28;20044;-56
2023/05/15 06:49:04;;;;;;;41.05;33.03;;;;;;;10.63;100.00;163343.50;5050522;28;20033;-56
2023/05/15 06:51:29;;;;;;;40.75;35.17;;;;;;;10.69;100.00;163359.66;5048606;28;20041;-56
2023/05/15 06:53:55;;;;;;;38.80;31.45;;;;;;;10.74;100.00;163373.22;5050361;28;20020;-56
2023/05/15 06:56:20;;;;;;;39.47;33.22;;;;;;;10.83;100.00;163394.81;5049145;28;20037;-56
2023/05/15 06:58:46;;;;;;;36.70;29.85;;;;;;;10.92;100.00;163419.06;5051642;28;20021;-56
2023/05/15 07:01:11;;;;;;;41.17;33.08;;;;;;;11.03;100.00;163448.81;5052488;28;20060;-56
2023/05/15 07:03:36;;;;;;;36.35;29.75;;;;;;;11.27;100.00;163510.94;5054318;28;20028;-56
2023/05/15 07:06:03;;;;;;;33.67;30.02;;;;;;;11.51;100.00;163573.00;5053000;28;20041;-56
2023/05/15 07:08:28;;;;;;;37.90;28.75;;;;;;;11.78;100.00;163643.28;5053746;28;20035;-56
2023/05/15 07:10:54;;;;;;;26.33;23.52;;;;;;;12.18;100.00;163748.66;5052975;28;20044;-56
2023/05/15 07:13:20;;;;;;;30.35;24.10;;;;;;;12.50;100.00;163832.47;5054238;28;20403;-56
2023/05/15 07:15:45;;;;;;;27.08;23.48;;;;;;;12.69;100.00;163882.47;5051910;28;20055;-56
2023/05/15 07:18:11;;;;;;;30.30;23.85;;;;;;;12.87;100.00;163929.78;5053813;28;20539;-56
2023/05/15 07:20:36;;;;;;;26.67;22.75;;;;;;;13.06;100.00;163978.47;5052033;28;20318;-56
2023/05/15 07:23:02;;;;;;;25.55;21.98;;;;;;;13.22;100.00;164020.34;5053329;28;20032;-56
2023/05/15 07:25:27;;;;;;;27.60;23.27;;;;;;;13.45;100.00;164081.22;5051962;28;20404;-57
2023/05/15 07:27:53;;;;;;;22.02;19.15;;;;;;;13.55;100.00;164108.28;5053592;28;20049;-56
2023/05/15 07:30:18;;;;;;;32.53;20.75;;;;;;;13.48;100.00;164089.34;5052065;28;20048;-56
2023/05/15 07:32:44;;;;;;;25.80;20.67;;;;;;;13.35;100.00;164054.16;5053581;28;20504;-56
2023/05/15 07:35:12;;;;;;;18.85;16.45;;;;;;;13.40;100.00;164069.09;5052560;28;20043;-57
2023/05/15 07:37:38;;;;;;;21.95;19.65;;;;;;;13.48;100.00;164089.34;5053339;28;20025;-56
2023/05/15 07:40:04;;;;;;;20.60;18.42;;;;;;;13.60;100.00;164121.78;5052527;28;20048;-56
2023/05/15 07:42:29;;;;;;;23.40;20.13;;;;;;;13.67;100.00;164138.00;5053226;28;20476;-56
2023/05/15 07:44:54;;;;;;;23.08;19.13;;;;;;;13.68;100.00;164140.72;5069527;28;20040;-56
2023/05/15 07:47:20;;;;;;;20.27;16.85;;;;;;;13.47;100.00;164086.66;5073797;28;20066;-57
2023/05/15 07:49:45;;;;;;;21.95;18.98;;;;;;;13.35;100.00;164055.50;5072120;28;20041;-56
2023/05/15 07:52:11;;;;;;;19.92;17.80;;;;;;;13.48;100.00;164090.69;5073026;28;20463;-57
2023/05/15 07:54:38;;;;;;;21.25;18.60;;;;;;;13.78;100.00;164167.78;5071616;28;20025;-56
2023/05/15 07:57:04;;;;;;;21.25;17.92;;;;;;;13.88;100.00;164194.84;5073484;28;20047;-57
2023/05/15 07:59:29;;;;;;;21.95;18.25;;;;;;;13.96;100.00;164216.47;5071324;28;20064;-57
2023/05/15 08:01:55;;;;;;;24.08;18.83;;;;;;;14.10;100.00;164251.66;5073074;28;20040;-57
2023/05/15 08:04:20;;;;;;;18.38;16.23;;;;;;;14.16;100.00;164266.50;5073371;28;20021;-57
2023/05/15 08:06:45;;;;;;;23.48;18.38;;;;;;;14.19;100.00;164275.97;5071395;28;20404;-56
2023/05/15 08:09:11;;;;;;;20.73;18.63;;;;;;;14.27;100.00;164297.63;5073192;28;20024;-57
2023/05/15 08:11:37;;;;;;;20.52;18.25;;;;;;;14.51;100.00;164358.53;5070333;28;20094;-57
2023/05/15 08:14:02;;;;;;;20.88;17.20;;;;;;;14.69;100.00;164405.94;5073197;28;20374;-57
2023/05/15 08:16:28;;;;;;;20.35;17.88;;;;;;;14.86;100.00;164451.91;5070986;28;20098;-57
2023/05/15 08:18:57;;;;;;;18.35;16.55;;;;;;;15.01;100.00;164489.81;5073262;28;20104;-57
2023/05/15 08:21:22;;;;;;;20.52;17.95;;;;;;;15.31;100.00;164568.31;5071466;28;20071;-56
2023/05/15 08:23:48;;;;;;;20.80;16.02;;;;;;;15.35;100.00;164579.16;5072389;28;20062;-56
2023/05/15 08:26:13;;;;;;;14.77;13.30;;;;;;;15.54;100.00;164630.59;5071418;28;20045;-57
2023/05/15 08:28:38;;;;;;;17.38;13.82;;;;;;;15.70;100.00;164672.59;5072706;28;20093;-57
2023/05/15 08:31:04;;;;;;;14.95;12.88;;;;;;;15.82;100.00;164702.38;5070951;28;20449;-57
2023/05/15 08:33:29;;;;;;;15.30;13.80;;;;;;;15.78;100.00;164692.88;5072639;28;20028;-56
2023/05/15 08:35:54;;;;;;;20.83;13.63;;;;;;;15.99;100.00;164747.09;5071179;28;20047;-57
2023/05/15 08:38:21;;;;;;;13.27;11.18;;;;;;;16.05;100.00;164763.31;5072372;28;20024;-56
2023/05/15 08:40:49;;;;;;;13.23;11.18;;;;;;;16.33;100.00;164836.50;5071050;28;20040;-57
2023/05/15 08:43:16;;;;;;;14.88;12.70;;;;;;;16.58;100.00;164902.88;5067088;28;20115;-57
2023/05/15 08:45:42;;;;;;;14.77;11.98;;;;;;;16.45;100.00;164867.66;5057598;28;20036;-57
2023/05/15 08:48:19;;;;;;;15.10;11.13;;;;;;;16.53;100.00;164887.94;5061189;28;20032;-57
2023/05/15 08:50:46;;;;;;;13.98;12.50;;;;;;;16.50;100.00;164882.53;5070737;28;20047;-57
2023/05/15 08:53:12;;;;;;;15.02;13.48;;;;;;;16.48;100.00;164877.13;5071299;28;20057;-57
2023/05/15 08:55:38;;;;;;;13.90;11.55;;;;;;;16.69;100.00;164931.31;5070691;28;20047;-57
2023/05/15 08:58:04;;;;;;;15.65;12.52;;;;;;;16.88;100.00;164980.06;5072519;28;20379;-57
2023/05/15 09:00:30;;;;;;;17.60;12.27;;;;;;;16.78;100.00;164955.72;5069593;28;20056;-56
2023/05/15 09:03:00;;;;;;;20.10;13.90;;;;;;;17.04;100.00;165022.16;5059001;28;20029;-57
2023/05/15 09:05:27;;;;;;;12.27;10.48;;;;;;;17.23;100.00;165072.28;5058764;28;20458;-57
2023/05/15 09:07:53;;;;;;;10.05;9.05;;;;;;;17.20;100.00;165064.13;5072000;28;20394;-57
2023/05/15 09:10:19;;;;;;;10.35;9.15;;;;;;;17.24;100.00;165074.94;5070661;28;20033;-56
2023/05/15 09:12:45;;;;;;;9.60;8.05;;;;;;;17.29;100.00;165088.53;5071327;28;20574;-56
2023/05/15 09:15:20;;;;;;;10.27;7.82;;;;;;;17.32;100.00;165095.31;5069997;28;20037;-57
2023/05/15 09:17:46;;;;;;;10.65;8.00;;;;;;;17.17;100.00;165055.97;5071769;28;20058;-57
2023/05/15 09:20:32;;;;;;;11.38;8.77;;;;;;;17.34;100.00;165102.06;5069931;28;20036;-56
2023/05/15 09:23:00;;;;;;;14.38;9.10;;;;;;;17.50;100.00;165142.72;5071118;28;20107;-57
2023/05/15 09:25:37;;;;;;;8.90;8.10;;;;;;;17.68;100.00;165191.56;5069843;28;20058;-56
2023/05/15 09:28:02;;;;;;;15.73;8.15;;;;;;;17.93;100.00;165256.59;5071761;28;20099;-57
2023/05/15 09:30:29;;;;;;;13.18;7.97;;;;;;;18.04;100.00;165285.09;5069611;28;20120;-57
2023/05/15 09:32:59;;;;;;;10.93;7.55;;;;;;;18.30;100.00;165354.25;5071770;28;20039;-57
2023/05/15 09:35:37;;;;;;;15.70;10.90;;;;;;;18.32;100.00;165359.69;5069831;28;20044;-57
2023/05/15 09:38:07;;;;;;;11.63;8.90;;;;;;;18.59;100.00;165430.19;5071921;28;20085;-57
2023/05/15 09:40:32;;;;;;;12.77;11.55;;;;;;;18.83;100.00;165493.97;5069748;28;20084;-56
2023/05/15 09:42:58;;;;;;;14.70;11.13;;;;;;;18.83;100.00;165492.56;5071320;28;20472;-57
2023/05/15 09:45:25;;;;;;;10.40;9.40;;;;;;;18.98;100.00;165533.31;5069599;28;20376;-57
2023/05/15 09:47:51;;;;;;;10.40;7.80;;;;;;;19.22;100.00;165595.72;5071329;28;20479;-57
2023/05/15 09:50:21;;;;;;;10.90;8.90;;;;;;;19.42;100.00;165648.66;5069927;28;20131;-57
2023/05/15 09:52:47;;;;;;;14.23;10.25;;;;;;;19.55;100.00;165682.53;5070967;28;20030;-57
2023/05/15 09:55:16;;;;;;;13.25;9.32;;;;;;;19.60;100.00;165694.75;5069741;28;20044;-56
2023/05/15 09:58:04;;;;;;;10.20;8.85;;;;;;;19.82;100.00;165753.13;5071311;28;20027;-57
2023/05/15 10:00:29;;;;;;;11.93;10.05;;;;;;;19.84;100.00;165757.19;5069056;28;20052;-57
2023/05/15 10:02:57;;;;;;;9.80;8.80;;;;;;;19.66;100.00;165712.41;5057419;28;20388;-57
2023/05/15 10:05:26;;;;;;;11.77;10.45;;;;;;;20.05;100.00;165814.22;5064892;28;20045;-57
2023/05/15 10:07:53;;;;;;;14.55;10.38;;;;;;;19.79;100.00;165744.97;5070388;28;20024;-57
2023/05/15 10:10:18;;;;;;;13.60;11.48;;;;;;;19.56;100.00;165685.25;5060342;28;20491;-57
2023/05/15 10:12:44;;;;;;;18.67;11.48;;;;;;;19.58;100.00;165689.34;5070145;28;20047;-57
2023/05/15 10:15:10;;;;;;;13.68;11.65;;;;;;;19.58;100.00;165690.69;5068705;28;20491;-56
2023/05/15 10:17:36;;;;;;;13.90;10.82;;;;;;;19.61;100.00;165698.84;5070441;28;20025;-57
2023/05/15 10:20:05;;;;;;;16.90;12.23;;;;;;;19.80;100.00;165747.69;5067857;28;20040;-57
2023/05/15 10:22:36;;;;;;;16.45;12.18;;;;;;;20.27;100.00;165871.22;5062485;28;20605;-57
2023/05/15 10:25:12;;;;;;;14.68;11.60;;;;;;;20.58;100.00;165954.06;5064362;28;20040;-57
2023/05/15 10:27:39;;;;;;;12.88;11.43;;;;;;;21.02;100.00;166068.16;5069595;28;20029;-57
2023/05/15 10:30:06;;;;;;;14.25;12.73;;;;;;;21.22;100.00;166122.47;5068244;28;20539;-57
2023/05/15 10:32:32;;;;;;;17.15;10.88;;;;;;;21.05;100.00;166076.28;5069549;28;20032;-57
2023/05/15 10:34:58;;;;;;;12.80;11.50;;;;;;;21.11;100.00;166092.56;5068148;28;20041;-57
2023/05/15 10:37:24;;;;;;;13.13;11.82;;;;;;;21.04;100.00;166073.53;5070606;28;20024;-57
2023/05/15 10:39:52;;;;;;;11.82;10.57;;;;;;;20.95;100.00;166049.16;5069153;28;20041;-57
2023/05/15 10:42:18;;;;;;;11.90;10.70;;;;;;;20.59;100.00;165956.72;5070015;28;20024;-57
2023/05/15 10:44:44;;;;;;;16.38;10.40;;;;;;;20.60;100.00;165959.47;5068864;28;20538;-56
2023/05/15 10:47:09;;;;;;;10.15;7.90;;;;;;;20.53;100.00;165940.44;5070908;28;20020;-57
2023/05/15 10:49:35;;;;;;;8.25;7.43;;;;;;;20.58;100.00;165954.06;5068685;28;20579;-57
2023/05/15 10:52:00;;;;;;;24.98;8.40;;;;;;;20.59;100.00;165956.72;5070247;28;20021;-57
2023/05/15 10:54:27;;;;;;;13.10;6.82;;;;;;;20.70;100.00;165983.91;5069128;28;20029;-57
2023/05/15 10:56:55;;;;;;;8.23;7.20;;;;;;;20.79;100.00;166007.03;5070786;28;20090;-57
2023/05/15 10:59:30;;;;;;;9.32;7.70;;;;;;;20.92;100.00;166043.69;5068845;28;20028;-57
2023/05/15 11:01:55;;;;;;;9.13;6.15;;;;;;;20.75;100.00;165997.53;5070323;28;20059;-56
2023/05/15 11:04:22;;;;;;;8.32;6.47;;;;;;;20.68;100.00;165978.47;5068871;28;20520;-57